createdAt,value
2018-08-12T00:01:03.736Z,24.65
2018-08-12T00:03:32.078Z,24.59
2018-08-12T00:06:00.394Z,24.53
2018-08-12T00:08:28.711Z,24.49
2018-08-12T00:10:57.166Z,24.46
2018-08-12T00:13:25.563Z,24.44
2018-08-12T00:15:53.874Z,24.41
2018-08-12T00:18:22.229Z,24.41
2018-08-12T00:20:50.634Z,24.40
2018-08-12T00:23:18.952Z,24.40
2018-08-12T00:25:47.274Z,24.37
2018-08-12T00:28:16.404Z,24.36
2018-08-12T00:30:44.679Z,24.36
2018-08-12T00:33:12.954Z,24.32
2018-08-12T00:35:41.318Z,24.32
2018-08-12T00:38:09.632Z,24.32
2018-08-12T00:40:37.930Z,24.30
2018-08-12T00:43:06.456Z,24.28
2018-08-12T00:45:34.851Z,24.27
2018-08-12T00:48:03.258Z,24.25
2018-08-12T00:50:31.542Z,24.24
2018-08-12T00:52:59.887Z,24.22
2018-08-12T00:55:28.314Z,24.21
2018-08-12T00:57:56.732Z,24.19
2018-08-12T01:00:25.034Z,24.17
2018-08-12T01:02:53.391Z,24.17
2018-08-12T01:05:21.719Z,24.15
2018-08-12T01:07:50.663Z,24.13
2018-08-12T01:10:19.625Z,24.12
2018-08-12T01:12:48.541Z,24.12
2018-08-12T01:15:18.830Z,24.12
2018-08-12T01:17:47.164Z,24.07
2018-08-12T01:20:19.298Z,24.10
2018-08-12T01:22:47.683Z,24.08
2018-08-12T01:25:16.018Z,24.07
2018-08-12T01:27:44.334Z,24.04
2018-08-12T01:30:14.849Z,24.02
2018-08-12T01:32:43.605Z,24.01
2018-08-12T01:35:12.742Z,23.99
2018-08-12T01:37:41.792Z,23.98
2018-08-12T01:40:11.653Z,23.98
2018-08-12T01:42:40.644Z,23.96
2018-08-12T01:45:10.050Z,23.95
2018-08-12T01:47:38.380Z,23.92
2018-08-12T01:50:07.202Z,23.93
2018-08-12T01:52:35.530Z,23.91
2018-08-12T01:55:03.895Z,23.91
2018-08-12T01:57:32.150Z,23.87
2018-08-12T02:00:00.477Z,23.86
2018-08-12T02:02:28.822Z,23.85
2018-08-12T02:04:57.195Z,23.86
2018-08-12T02:07:25.514Z,23.86
2018-08-12T02:09:53.970Z,23.86
2018-08-12T02:12:22.554Z,23.86
2018-08-12T02:14:50.861Z,23.82
2018-08-12T02:17:19.166Z,23.81
2018-08-12T02:19:47.533Z,23.79
2018-08-12T02:22:15.813Z,23.78
2018-08-12T02:24:44.129Z,23.79
2018-08-12T02:27:12.478Z,23.75
2018-08-12T02:29:40.769Z,23.72
2018-08-12T02:32:09.046Z,23.70
2018-08-12T02:34:37.350Z,23.69
2018-08-12T02:37:05.677Z,23.67
2018-08-12T02:39:33.970Z,23.64
2018-08-12T02:42:02.253Z,23.65
2018-08-12T02:44:30.566Z,23.59
2018-08-12T02:46:58.834Z,23.55
2018-08-12T02:49:27.142Z,23.53
2018-08-12T02:51:55.425Z,23.54
2018-08-12T02:54:23.705Z,23.55
2018-08-12T02:56:52.017Z,23.57
2018-08-12T02:59:20.346Z,23.55
2018-08-12T03:01:48.714Z,23.52
2018-08-12T03:04:22.427Z,23.52
2018-08-12T03:06:50.711Z,23.46
2018-08-12T03:09:19.020Z,23.45
2018-08-12T03:11:47.325Z,23.41
2018-08-12T03:14:15.672Z,23.38
2018-08-12T03:16:43.950Z,23.32
2018-08-12T03:19:12.231Z,23.35
2018-08-12T03:21:40.491Z,23.34
2018-08-12T03:24:08.805Z,23.32
2018-08-12T03:31:31.667Z,23.29
2018-08-12T03:33:59.969Z,23.27
2018-08-12T03:36:28.246Z,23.28
2018-08-12T03:38:57.266Z,23.28
2018-08-12T03:41:25.534Z,23.26
2018-08-12T03:43:53.829Z,23.25
2018-08-12T03:46:22.141Z,23.23
2018-08-12T03:48:50.478Z,23.21
2018-08-12T03:51:18.914Z,23.17
2018-08-12T03:53:47.245Z,23.15
2018-08-12T03:56:15.599Z,23.16
2018-08-12T03:58:43.910Z,23.14
2018-08-12T04:01:12.303Z,23.11
2018-08-12T04:03:40.597Z,23.09
2018-08-12T04:06:08.959Z,23.08
2018-08-12T04:08:37.306Z,23.08
2018-08-12T04:11:05.682Z,23.07
2018-08-12T04:13:33.969Z,23.06
2018-08-12T04:16:02.345Z,23.05
2018-08-12T04:18:30.702Z,23.03
2018-08-12T04:20:59.893Z,23.02
2018-08-12T04:23:28.185Z,23.03
2018-08-12T04:25:56.516Z,23.02
2018-08-12T04:28:24.839Z,23.03
2018-08-12T04:30:53.241Z,23.00
2018-08-12T04:33:21.611Z,22.98
2018-08-12T04:35:49.941Z,22.99
2018-08-12T04:38:18.261Z,22.95
2018-08-12T04:40:46.603Z,22.97
2018-08-12T04:43:14.885Z,22.95
2018-08-12T04:45:43.238Z,22.97
2018-08-12T04:48:11.542Z,22.95
2018-08-12T04:50:39.930Z,22.98
2018-08-12T04:53:08.238Z,23.00
2018-08-12T04:55:36.602Z,22.95
2018-08-12T04:58:04.890Z,23.01
2018-08-12T05:00:33.173Z,23.02
2018-08-12T05:03:02.397Z,23.02
2018-08-12T05:05:30.718Z,23.02
2018-08-12T05:07:59.005Z,23.01
2018-08-12T05:10:27.298Z,23.00
2018-08-12T05:12:55.610Z,23.00
2018-08-12T05:15:23.901Z,23.03
2018-08-12T05:17:52.178Z,23.05
2018-08-12T05:20:20.477Z,23.12
2018-08-12T05:22:48.792Z,23.12
2018-08-12T05:25:17.090Z,23.15
2018-08-12T05:27:45.395Z,23.15
2018-08-12T05:30:13.682Z,23.13
2018-08-12T05:32:42.374Z,23.11
2018-08-12T05:35:12.734Z,23.12
2018-08-12T05:37:41.007Z,23.18
2018-08-12T05:40:10.730Z,23.19
2018-08-12T05:42:39.011Z,23.21
2018-08-12T05:45:08.582Z,23.23
2018-08-12T05:47:37.350Z,23.23
2018-08-12T05:50:06.313Z,23.26
2018-08-12T05:52:35.194Z,23.27
2018-08-12T05:55:03.575Z,23.26
2018-08-12T05:57:31.918Z,23.27
2018-08-12T06:00:00.178Z,23.27
2018-08-12T06:02:28.577Z,23.26
2018-08-12T06:04:56.869Z,23.25
2018-08-12T06:07:25.187Z,23.28
2018-08-12T06:09:53.498Z,23.28
2018-08-12T06:12:21.777Z,23.29
2018-08-12T06:14:50.062Z,23.32
2018-08-12T06:17:18.421Z,23.33
2018-08-12T06:19:46.677Z,23.36
2018-08-12T06:22:15.074Z,23.37
2018-08-12T06:24:43.394Z,23.36
2018-08-12T06:27:11.673Z,23.38
2018-08-12T06:29:39.954Z,23.40
2018-08-12T06:32:08.229Z,23.38
2018-08-12T06:34:36.503Z,23.41
2018-08-12T06:37:04.835Z,23.45
2018-08-12T06:39:33.122Z,23.51
2018-08-12T06:42:01.443Z,23.52
2018-08-12T06:44:29.687Z,23.54
2018-08-12T06:46:58.030Z,23.55
2018-08-12T06:49:26.470Z,23.60
2018-08-12T06:51:54.834Z,23.63
2018-08-12T06:54:23.098Z,23.65
2018-08-12T06:56:51.427Z,23.59
2018-08-12T06:59:19.676Z,23.60
2018-08-12T07:01:47.966Z,23.61
2018-08-12T07:04:16.259Z,23.61
2018-08-12T07:06:44.569Z,23.62
2018-08-12T07:09:12.816Z,23.61
2018-08-12T07:11:41.107Z,23.62
2018-08-12T07:14:10.622Z,23.63
2018-08-12T07:16:39.006Z,23.65
2018-08-12T07:19:08.205Z,23.66
2018-08-12T07:21:36.542Z,23.68
2018-08-12T07:24:04.874Z,23.69
2018-08-12T07:26:33.276Z,23.71
2018-08-12T07:29:01.541Z,23.71
2018-08-12T07:31:29.821Z,23.73
2018-08-12T07:33:58.098Z,23.72
2018-08-12T07:36:26.390Z,23.73
2018-08-12T07:38:54.810Z,23.74
2018-08-12T07:41:23.242Z,23.75
2018-08-12T07:43:51.521Z,23.77
2018-08-12T07:46:19.978Z,23.77
2018-08-12T07:48:48.749Z,23.79
2018-08-12T07:51:16.929Z,23.81
2018-08-12T07:53:45.229Z,23.82
2018-08-12T07:56:13.613Z,23.84
2018-08-12T07:58:41.905Z,23.84
2018-08-12T08:01:10.186Z,23.86
2018-08-12T08:03:38.509Z,23.89
2018-08-12T08:06:06.912Z,23.88
2018-08-12T08:08:35.211Z,23.91
2018-08-12T08:11:03.636Z,23.94
2018-08-12T08:13:32.002Z,23.96
2018-08-12T08:16:00.321Z,23.98
2018-08-12T08:18:28.750Z,24.00
2018-08-12T08:20:57.022Z,24.01
2018-08-12T08:23:25.353Z,24.03
2018-08-12T08:25:53.733Z,24.04
2018-08-12T08:28:22.054Z,24.07
2018-08-12T08:30:50.369Z,24.08
2018-08-12T08:33:18.778Z,24.09
2018-08-12T08:35:47.034Z,24.14
2018-08-12T08:38:16.239Z,24.20
2018-08-12T08:40:45.070Z,24.23
2018-08-12T08:43:13.390Z,24.27
2018-08-12T08:45:41.702Z,24.30
2018-08-12T08:48:16.554Z,24.34
2018-08-12T08:50:45.942Z,24.37
2018-08-12T08:53:14.266Z,24.40
2018-08-12T08:55:42.629Z,24.47
2018-08-12T08:58:10.898Z,24.47
2018-08-12T09:00:39.205Z,24.49
2018-08-12T09:03:07.530Z,24.52
2018-08-12T09:05:35.860Z,24.53
2018-08-12T09:08:04.418Z,24.54
2018-08-12T09:10:32.659Z,24.56
2018-08-12T09:13:00.986Z,24.60
2018-08-12T09:15:29.390Z,24.61
2018-08-12T09:17:57.738Z,24.65
2018-08-12T09:20:26.122Z,24.66
2018-08-12T09:22:54.538Z,24.68
2018-08-12T09:25:22.905Z,24.72
2018-08-12T09:27:51.294Z,24.75
2018-08-12T09:30:20.910Z,24.79
2018-08-12T09:32:49.502Z,24.82
2018-08-12T09:35:18.020Z,24.83
2018-08-12T09:37:46.342Z,24.84
2018-08-12T09:40:16.747Z,24.88
2018-08-12T09:42:45.937Z,24.89
2018-08-12T09:45:16.327Z,24.92
2018-08-12T09:47:44.730Z,24.96
2018-08-12T09:50:16.105Z,24.98
2018-08-12T09:52:44.653Z,24.99
2018-08-12T09:55:13.574Z,25.01
2018-08-12T09:57:41.970Z,25.06
2018-08-12T10:00:16.922Z,25.06
2018-08-12T10:02:45.270Z,25.07
2018-08-12T10:05:13.639Z,25.13
2018-08-12T10:07:42.026Z,25.13
2018-08-12T10:10:10.394Z,25.17
2018-08-12T10:12:39.047Z,25.20
2018-08-12T10:15:07.567Z,25.20
2018-08-12T10:17:36.718Z,25.24
2018-08-12T10:20:05.426Z,25.27
2018-08-12T10:22:33.757Z,25.28
2018-08-12T10:25:02.234Z,25.33
2018-08-12T10:27:30.577Z,25.35
2018-08-12T10:29:58.898Z,25.36
2018-08-12T10:32:27.345Z,25.39
2018-08-12T10:34:55.646Z,25.40
2018-08-12T10:37:23.965Z,25.43
2018-08-12T10:39:52.286Z,25.48
2018-08-12T10:42:21.378Z,25.51
2018-08-12T10:44:49.658Z,25.51
2018-08-12T10:47:17.975Z,25.51
2018-08-12T10:49:46.354Z,25.53
2018-08-12T10:52:14.642Z,25.56
2018-08-12T10:54:43.010Z,25.58
2018-08-12T10:57:11.326Z,25.60
2018-08-12T10:59:39.654Z,25.61
2018-08-12T11:02:07.990Z,25.64
2018-08-12T11:04:36.310Z,25.64
2018-08-12T11:07:04.768Z,25.67
2018-08-12T11:09:33.162Z,25.68
2018-08-12T11:12:01.577Z,25.71
2018-08-12T11:14:29.867Z,25.74
2018-08-12T11:16:58.137Z,25.74
2018-08-12T11:19:26.418Z,25.75
2018-08-12T11:21:54.690Z,25.76
2018-08-12T11:24:23.046Z,25.78
2018-08-12T11:26:51.322Z,25.80
2018-08-12T11:29:19.650Z,25.82
2018-08-12T11:31:47.926Z,25.82
2018-08-12T11:34:16.230Z,25.86
2018-08-12T11:36:44.618Z,25.84
2018-08-12T11:39:13.194Z,25.85
2018-08-12T11:41:41.530Z,25.86
2018-08-12T11:44:09.950Z,25.85
2018-08-12T11:46:38.286Z,25.85
2018-08-12T11:49:06.890Z,25.86
2018-08-12T11:51:35.186Z,25.86
2018-08-12T11:54:03.501Z,25.90
2018-08-12T11:56:31.842Z,25.91
2018-08-12T11:59:00.157Z,25.94
2018-08-12T12:01:28.482Z,25.98
2018-08-12T12:03:57.182Z,25.99
2018-08-12T12:06:25.520Z,26.00
2018-08-12T12:08:53.855Z,26.01
2018-08-12T12:11:22.136Z,26.02
2018-08-12T12:13:50.447Z,26.04
2018-08-12T12:16:18.730Z,26.05
2018-08-12T12:18:47.042Z,26.06
2018-08-12T12:21:15.394Z,26.07
2018-08-12T12:23:43.703Z,26.06
2018-08-12T12:26:12.019Z,26.05
2018-08-12T12:28:40.463Z,26.04
2018-08-12T12:31:08.838Z,26.01
2018-08-12T12:33:37.139Z,26.03
2018-08-12T12:36:05.474Z,26.01
2018-08-12T12:38:33.767Z,25.99
2018-08-12T12:41:02.074Z,26.01
2018-08-12T12:43:30.330Z,26.03
2018-08-12T12:45:59.270Z,26.06
2018-08-12T12:48:27.726Z,26.06
2018-08-12T12:50:56.115Z,26.07
2018-08-12T12:53:24.361Z,26.10
2018-08-12T12:55:52.675Z,26.12
2018-08-12T12:58:20.962Z,26.16
2018-08-12T13:00:49.319Z,26.18
2018-08-12T13:03:17.657Z,26.18
2018-08-12T13:05:46.013Z,26.20
2018-08-12T13:08:14.365Z,26.21
2018-08-12T13:10:42.693Z,26.16
2018-08-12T13:13:11.120Z,26.15
2018-08-12T13:15:39.534Z,26.16
2018-08-12T13:18:07.826Z,26.16
2018-08-12T13:20:36.146Z,26.12
2018-08-12T13:23:04.451Z,26.11
2018-08-12T13:25:32.735Z,26.14
2018-08-12T13:28:01.351Z,26.16
2018-08-12T13:30:29.630Z,26.20
2018-08-12T13:32:58.024Z,26.22
2018-08-12T13:35:26.338Z,26.23
2018-08-12T13:37:54.620Z,26.26
2018-08-12T13:40:22.907Z,26.27
2018-08-12T13:42:51.254Z,26.29
2018-08-12T13:45:19.599Z,26.31
2018-08-12T13:47:47.970Z,26.31
2018-08-12T13:50:18.546Z,26.32
2018-08-12T13:52:47.354Z,26.32
2018-08-12T13:55:15.697Z,26.29
2018-08-12T13:57:44.242Z,26.26
2018-08-12T14:00:15.019Z,26.24
2018-08-12T14:02:43.489Z,26.24
2018-08-12T14:05:13.222Z,26.24
2018-08-12T14:07:41.490Z,26.22
2018-08-12T14:10:10.759Z,26.21
2018-08-12T14:12:39.389Z,26.21
2018-08-12T14:15:09.694Z,26.23
2018-08-12T14:17:38.205Z,26.20
2018-08-12T14:20:07.246Z,26.26
2018-08-12T14:22:35.650Z,26.29
2018-08-12T14:25:04.633Z,26.31
2018-08-12T14:27:32.918Z,26.31
2018-08-12T14:30:01.190Z,26.32
2018-08-12T14:32:29.469Z,26.32
2018-08-12T14:34:57.848Z,26.30
2018-08-12T14:37:26.179Z,26.28
2018-08-12T14:39:54.434Z,26.29
2018-08-12T14:42:22.811Z,26.30
2018-08-12T14:44:51.099Z,26.32
2018-08-12T14:47:19.482Z,26.34
2018-08-12T14:49:47.865Z,26.32
2018-08-12T14:52:16.302Z,26.29
2018-08-12T14:54:44.672Z,26.27
2018-08-12T14:57:13.031Z,26.27
2018-08-12T14:59:41.320Z,26.27
2018-08-12T15:02:09.658Z,26.27
2018-08-12T15:04:37.940Z,26.28
2018-08-12T15:07:06.411Z,26.29
2018-08-12T15:09:34.658Z,26.30
2018-08-12T15:12:02.983Z,26.32
2018-08-12T15:14:31.302Z,26.33
2018-08-12T15:16:59.617Z,26.35
2018-08-12T15:19:27.906Z,26.36
2018-08-12T15:21:56.178Z,26.37
2018-08-12T15:24:24.585Z,26.36
2018-08-12T15:26:52.894Z,26.38
2018-08-12T15:29:21.214Z,26.38
2018-08-12T15:31:49.469Z,26.40
2018-08-12T15:34:17.782Z,26.39
2018-08-12T15:36:46.075Z,26.39
2018-08-12T15:39:14.366Z,26.40
2018-08-12T15:41:43.342Z,26.40
2018-08-12T15:44:11.684Z,26.40
2018-08-12T15:46:40.334Z,26.40
2018-08-12T15:49:08.625Z,26.41
2018-08-12T15:51:36.954Z,26.41
2018-08-12T15:54:05.249Z,26.42
2018-08-12T15:56:33.637Z,26.41
2018-08-12T15:59:01.903Z,26.43
2018-08-12T16:01:30.351Z,26.42
2018-08-12T16:03:58.778Z,26.42
2018-08-12T16:06:27.160Z,26.42
2018-08-12T16:08:55.524Z,26.44
2018-08-12T16:11:23.912Z,26.44
2018-08-12T16:13:52.258Z,26.44
2018-08-12T16:16:20.621Z,26.44
2018-08-12T16:18:48.857Z,26.45
2018-08-12T16:21:17.473Z,26.44
2018-08-12T16:23:45.890Z,26.44
2018-08-12T16:26:14.266Z,26.44
2018-08-12T16:28:42.790Z,26.44
2018-08-12T16:31:11.570Z,26.45
2018-08-12T16:33:40.014Z,26.46
2018-08-12T16:36:08.366Z,26.47
2018-08-12T16:38:36.662Z,26.45
2018-08-12T16:41:05.152Z,26.46
2018-08-12T16:43:33.474Z,26.47
2018-08-12T16:46:01.858Z,26.47
2018-08-12T16:48:30.296Z,26.47
2018-08-12T16:50:58.680Z,26.47
2018-08-12T16:53:26.981Z,26.47
2018-08-12T16:55:55.382Z,26.48
2018-08-12T16:58:23.753Z,26.45
2018-08-12T17:00:52.071Z,26.46
2018-08-12T17:03:20.399Z,26.46
2018-08-12T17:05:48.823Z,26.45
2018-08-12T17:08:17.162Z,26.47
2018-08-12T17:10:45.486Z,26.46
2018-08-12T17:13:14.516Z,26.47
2018-08-12T17:15:42.806Z,26.46
2018-08-12T17:18:11.148Z,26.47
2018-08-12T17:20:39.455Z,26.47
2018-08-12T17:23:07.791Z,26.47
2018-08-12T17:25:36.187Z,26.47
2018-08-12T17:28:04.578Z,26.45
2018-08-12T17:30:32.929Z,26.46
2018-08-12T17:33:01.330Z,26.46
2018-08-12T17:35:29.758Z,26.46
2018-08-12T17:37:58.130Z,26.45
2018-08-12T17:40:33.058Z,26.45
2018-08-12T17:43:01.426Z,26.46
2018-08-12T17:45:29.766Z,26.45
2018-08-12T17:47:58.115Z,26.46
2018-08-12T17:50:26.406Z,26.47
2018-08-12T17:52:54.698Z,26.47
2018-08-12T17:55:22.985Z,26.46
2018-08-12T17:57:51.369Z,26.47
2018-08-12T18:00:19.646Z,26.47
2018-08-12T18:02:48.074Z,26.47
2018-08-12T18:05:16.375Z,26.46
2018-08-12T18:07:44.717Z,26.46
2018-08-12T18:10:13.023Z,26.47
2018-08-12T18:12:41.390Z,26.47
2018-08-12T18:15:10.996Z,26.47
2018-08-12T18:17:39.898Z,26.46
2018-08-12T18:20:08.425Z,26.45
2018-08-12T18:22:36.917Z,26.47
2018-08-12T18:25:06.534Z,26.46
2018-08-12T18:27:34.986Z,26.45
2018-08-12T18:30:03.438Z,26.45
2018-08-12T18:32:31.805Z,26.45
2018-08-12T18:35:00.096Z,26.44
2018-08-12T18:37:28.353Z,26.44
2018-08-12T18:39:56.643Z,26.43
2018-08-12T18:42:25.035Z,26.43
2018-08-12T18:44:53.354Z,26.43
2018-08-12T18:47:21.662Z,26.42
2018-08-12T18:49:49.969Z,26.41
2018-08-12T18:52:18.238Z,26.41
2018-08-12T18:54:46.509Z,26.41
2018-08-12T18:57:14.825Z,26.40
2018-08-12T18:59:43.166Z,26.39
2018-08-12T19:02:11.735Z,26.39
2018-08-12T19:04:40.066Z,26.38
2018-08-12T19:07:08.450Z,26.38
2018-08-12T19:09:36.827Z,26.38
2018-08-12T19:12:05.202Z,26.37
2018-08-12T19:14:33.538Z,26.36
2018-08-12T19:17:01.934Z,26.36
2018-08-12T19:19:30.282Z,26.35
2018-08-12T19:21:58.586Z,26.35
2018-08-12T19:24:26.866Z,26.34
2018-08-12T19:26:55.230Z,26.33
2018-08-12T19:29:23.850Z,26.32
2018-08-12T19:31:52.146Z,26.32
2018-08-12T19:34:20.486Z,26.31
2018-08-12T19:36:48.738Z,26.31
2018-08-12T19:39:17.061Z,26.30
2018-08-12T19:41:45.335Z,26.29
2018-08-12T19:44:13.654Z,26.29
2018-08-12T19:46:42.107Z,26.28
2018-08-12T19:49:10.463Z,26.27
2018-08-12T19:51:38.870Z,26.26
2018-08-12T19:54:07.215Z,26.26
2018-08-12T19:56:35.569Z,26.25
2018-08-12T19:59:04.002Z,26.24
2018-08-12T20:01:32.337Z,26.23
2018-08-12T20:04:00.710Z,26.22
2018-08-12T20:06:29.122Z,26.22
2018-08-12T20:08:57.459Z,26.21
2018-08-12T20:11:25.736Z,26.20
2018-08-12T20:13:54.042Z,26.20
2018-08-12T20:16:22.338Z,26.18
2018-08-12T20:18:50.797Z,26.17
2018-08-12T20:21:19.096Z,26.16
2018-08-12T20:23:47.561Z,26.16
2018-08-12T20:26:15.923Z,26.15
2018-08-12T20:28:44.289Z,26.13
2018-08-12T20:31:12.562Z,26.13
2018-08-12T20:33:40.866Z,26.12
2018-08-12T20:36:09.273Z,26.11
2018-08-12T20:38:37.726Z,26.10
2018-08-12T20:41:06.069Z,26.10
2018-08-12T20:43:34.454Z,26.09
2018-08-12T20:46:02.770Z,26.08
2018-08-12T20:48:31.138Z,26.08
2018-08-12T20:50:59.469Z,26.05
2018-08-12T20:53:27.782Z,26.05
2018-08-12T20:55:56.114Z,26.04
2018-08-12T20:58:24.397Z,26.03
2018-08-12T21:00:52.805Z,26.02
2018-08-12T21:03:21.142Z,26.01
2018-08-12T21:05:49.496Z,26.00
2018-08-12T21:08:17.852Z,26.00
2018-08-12T21:10:46.255Z,25.99
2018-08-12T21:13:14.550Z,25.94
2018-08-12T21:15:42.926Z,25.98
2018-08-12T21:18:11.217Z,25.97
2018-08-12T21:20:39.543Z,25.96
2018-08-12T21:23:07.866Z,25.94
2018-08-12T21:25:36.169Z,25.94
2018-08-12T21:28:04.514Z,25.93
2018-08-12T21:30:33.819Z,25.91
2018-08-12T21:33:02.185Z,25.90
2018-08-12T21:35:30.477Z,25.90
2018-08-12T21:37:58.769Z,25.88
2018-08-12T21:40:27.113Z,25.88
2018-08-12T21:42:55.482Z,25.87
2018-08-12T21:45:23.822Z,25.86
2018-08-12T21:47:52.241Z,25.85
2018-08-12T21:50:20.535Z,25.83
2018-08-12T21:52:48.821Z,25.81
2018-08-12T21:55:17.142Z,25.81
2018-08-12T21:57:45.464Z,25.80
2018-08-12T22:00:15.128Z,25.78
2018-08-12T22:02:44.546Z,25.78
2018-08-12T22:05:12.847Z,25.77
2018-08-12T22:07:41.333Z,25.76
2018-08-12T22:10:09.707Z,25.75
2018-08-12T22:12:38.017Z,25.74
2018-08-12T22:15:07.269Z,25.73
2018-08-12T22:17:35.686Z,25.72
2018-08-12T22:20:04.998Z,25.71
2018-08-12T22:22:33.294Z,25.71
2018-08-12T22:25:01.626Z,25.69
2018-08-12T22:27:29.922Z,25.68
2018-08-12T22:29:58.281Z,25.66
2018-08-12T22:32:26.585Z,25.63
2018-08-12T22:34:54.890Z,25.62
2018-08-12T22:37:23.253Z,25.61
2018-08-12T22:39:51.823Z,25.58
2018-08-12T22:42:20.126Z,25.53
2018-08-12T22:44:48.417Z,25.48
2018-08-12T22:47:16.814Z,25.48
2018-08-12T22:49:45.094Z,25.47
2018-08-12T22:52:13.426Z,25.41
2018-08-12T22:54:41.762Z,25.39
2018-08-12T22:57:10.138Z,25.37
2018-08-12T22:59:38.453Z,25.35
2018-08-12T23:02:07.489Z,25.33
2018-08-12T23:04:35.810Z,25.26
2018-08-12T23:07:04.200Z,25.21
2018-08-12T23:09:32.662Z,25.21
2018-08-12T23:12:00.998Z,25.19
2018-08-12T23:14:29.362Z,25.15
2018-08-12T23:16:59.401Z,25.05
2018-08-12T23:19:27.950Z,25.05
2018-08-12T23:21:56.369Z,25.04
2018-08-12T23:24:24.776Z,25.02
2018-08-12T23:26:53.169Z,25.01
2018-08-12T23:29:21.545Z,24.99
2018-08-12T23:31:49.940Z,25.01
2018-08-12T23:34:18.322Z,25.03
2018-08-12T23:36:46.621Z,25.02
2018-08-12T23:39:14.953Z,25.01
2018-08-12T23:41:43.282Z,24.98
2018-08-12T23:44:12.636Z,24.92
2018-08-12T23:46:41.042Z,24.90
2018-08-12T23:49:09.322Z,24.89
2018-08-12T23:51:37.674Z,24.85
2018-08-12T23:54:06.006Z,24.90
2018-08-12T23:56:34.305Z,24.91
2018-08-12T23:59:02.609Z,24.92
